sensor_id;sensor_type;location;lat;lon;timestamp;temperature;humidity
77613;DHT22;66777;52.282;5.960;2023-03-05T00:01:22;3.60;82.80
77613;DHT22;66777;52.282;5.960;2023-03-05T00:03:49;3.60;82.80
77613;DHT22;66777;52.282;5.960;2023-03-05T00:06:20;3.60;82.90
77613;DHT22;66777;52.282;5.960;2023-03-05T00:08:47;3.60;83.00
77613;DHT22;66777;52.282;5.960;2023-03-05T00:11:14;3.50;83.10
77613;DHT22;66777;52.282;5.960;2023-03-05T00:13:40;3.50;83.00
77613;DHT22;66777;52.282;5.960;2023-03-05T00:16:09;3.50;83.10
77613;DHT22;66777;52.282;5.960;2023-03-05T00:18:36;3.40;83.10
77613;DHT22;66777;52.282;5.960;2023-03-05T00:21:02;3.50;83.50
77613;DHT22;66777;52.282;5.960;2023-03-05T00:23:28;3.50;83.50
77613;DHT22;66777;52.282;5.960;2023-03-05T00:25:54;3.50;83.40
77613;DHT22;66777;52.282;5.960;2023-03-05T00:28:21;3.50;84.00
77613;DHT22;66777;52.282;5.960;2023-03-05T00:30:49;3.40;84.00
77613;DHT22;66777;52.282;5.960;2023-03-05T00:33:16;3.30;84.20
77613;DHT22;66777;52.282;5.960;2023-03-05T00:35:44;3.40;84.10
77613;DHT22;66777;52.282;5.960;2023-03-05T00:38:11;3.40;84.20
77613;DHT22;66777;52.282;5.960;2023-03-05T00:40:40;3.40;84.10
77613;DHT22;66777;52.282;5.960;2023-03-05T00:43:06;3.40;84.00
77613;DHT22;66777;52.282;5.960;2023-03-05T00:45:33;3.30;84.00
77613;DHT22;66777;52.282;5.960;2023-03-05T00:47:59;3.30;84.10
77613;DHT22;66777;52.282;5.960;2023-03-05T00:50:26;3.30;84.40
77613;DHT22;66777;52.282;5.960;2023-03-05T00:52:53;3.30;84.20
77613;DHT22;66777;52.282;5.960;2023-03-05T00:55:19;3.30;84.50
77613;DHT22;66777;52.282;5.960;2023-03-05T00:57:47;3.30;84.50
77613;DHT22;66777;52.282;5.960;2023-03-05T01:00:14;3.30;84.60
77613;DHT22;66777;52.282;5.960;2023-03-05T01:02:40;3.40;84.30
77613;DHT22;66777;52.282;5.960;2023-03-05T01:05:08;3.40;84.50
77613;DHT22;66777;52.282;5.960;2023-03-05T01:07:34;3.40;84.40
77613;DHT22;66777;52.282;5.960;2023-03-05T01:10:00;3.40;84.30
77613;DHT22;66777;52.282;5.960;2023-03-05T01:12:26;3.40;84.30
77613;DHT22;66777;52.282;5.960;2023-03-05T01:14:52;3.40;84.50
77613;DHT22;66777;52.282;5.960;2023-03-05T01:17:17;3.40;84.40
77613;DHT22;66777;52.282;5.960;2023-03-05T01:19:43;3.40;84.40
77613;DHT22;66777;52.282;5.960;2023-03-05T01:22:09;3.40;84.30
77613;DHT22;66777;52.282;5.960;2023-03-05T01:24:35;3.40;84.20
77613;DHT22;66777;52.282;5.960;2023-03-05T01:27:01;3.50;84.20
77613;DHT22;66777;52.282;5.960;2023-03-05T01:29:27;3.50;84.10
77613;DHT22;66777;52.282;5.960;2023-03-05T01:31:53;3.50;84.20
77613;DHT22;66777;52.282;5.960;2023-03-05T01:34:19;3.50;84.20
77613;DHT22;66777;52.282;5.960;2023-03-05T01:36:46;3.50;83.90
77613;DHT22;66777;52.282;5.960;2023-03-05T01:39:14;3.50;84.20
77613;DHT22;66777;52.282;5.960;2023-03-05T01:41:40;3.50;84.20
77613;DHT22;66777;52.282;5.960;2023-03-05T01:44:05;3.50;84.30
77613;DHT22;66777;52.282;5.960;2023-03-05T01:46:37;3.50;84.20
77613;DHT22;66777;52.282;5.960;2023-03-05T01:52:02;3.50;84.00
77613;DHT22;66777;52.282;5.960;2023-03-05T01:54:38;3.50;83.90
77613;DHT22;66777;52.282;5.960;2023-03-05T01:57:18;3.50;84.00
77613;DHT22;66777;52.282;5.960;2023-03-05T01:59:48;3.40;84.00
77613;DHT22;66777;52.282;5.960;2023-03-05T02:02:15;3.40;84.00
77613;DHT22;66777;52.282;5.960;2023-03-05T02:04:51;3.40;84.00
77613;DHT22;66777;52.282;5.960;2023-03-05T02:07:20;3.40;83.80
77613;DHT22;66777;52.282;5.960;2023-03-05T02:09:46;3.40;83.70
77613;DHT22;66777;52.282;5.960;2023-03-05T02:12:13;3.40;83.70
77613;DHT22;66777;52.282;5.960;2023-03-05T02:14:41;3.50;83.80
77613;DHT22;66777;52.282;5.960;2023-03-05T02:17:09;3.50;83.60
77613;DHT22;66777;52.282;5.960;2023-03-05T02:20:16;3.50;83.60
77613;DHT22;66777;52.282;5.960;2023-03-05T02:22:42;3.50;83.50
77613;DHT22;66777;52.282;5.960;2023-03-05T02:27:45;3.50;83.80
77613;DHT22;66777;52.282;5.960;2023-03-05T02:30:14;3.40;83.60
77613;DHT22;66777;52.282;5.960;2023-03-05T02:32:40;3.30;83.60
77613;DHT22;66777;52.282;5.960;2023-03-05T02:35:07;3.30;83.60
77613;DHT22;66777;52.282;5.960;2023-03-05T02:37:33;3.30;83.60
77613;DHT22;66777;52.282;5.960;2023-03-05T02:39:59;3.20;83.60
77613;DHT22;66777;52.282;5.960;2023-03-05T02:42:25;3.10;83.70
77613;DHT22;66777;52.282;5.960;2023-03-05T02:44:51;3.10;83.90
77613;DHT22;66777;52.282;5.960;2023-03-05T02:47:17;3.10;83.90
77613;DHT22;66777;52.282;5.960;2023-03-05T02:49:43;3.20;84.00
77613;DHT22;66777;52.282;5.960;2023-03-05T02:52:09;3.30;83.70
77613;DHT22;66777;52.282;5.960;2023-03-05T02:54:35;3.30;83.50
77613;DHT22;66777;52.282;5.960;2023-03-05T02:57:01;3.30;83.70
77613;DHT22;66777;52.282;5.960;2023-03-05T02:59:26;3.30;83.50
77613;DHT22;66777;52.282;5.960;2023-03-05T03:01:52;3.30;83.50
77613;DHT22;66777;52.282;5.960;2023-03-05T03:04:18;3.40;83.30
77613;DHT22;66777;52.282;5.960;2023-03-05T03:06:44;3.30;83.40
77613;DHT22;66777;52.282;5.960;2023-03-05T03:09:10;3.30;83.30
77613;DHT22;66777;52.282;5.960;2023-03-05T03:11:37;3.30;83.50
77613;DHT22;66777;52.282;5.960;2023-03-05T03:14:02;3.20;83.50
77613;DHT22;66777;52.282;5.960;2023-03-05T03:16:28;3.20;83.70
77613;DHT22;66777;52.282;5.960;2023-03-05T03:18:53;3.20;83.60
77613;DHT22;66777;52.282;5.960;2023-03-05T03:21:23;3.20;83.70
77613;DHT22;66777;52.282;5.960;2023-03-05T03:23:49;3.10;83.60
77613;DHT22;66777;52.282;5.960;2023-03-05T03:26:16;3.10;83.90
77613;DHT22;66777;52.282;5.960;2023-03-05T03:28:42;3.10;84.10
77613;DHT22;66777;52.282;5.960;2023-03-05T03:31:08;3.10;84.20
77613;DHT22;66777;52.282;5.960;2023-03-05T03:33:33;3.10;84.20
77613;DHT22;66777;52.282;5.960;2023-03-05T03:35:59;3.10;84.00
77613;DHT22;66777;52.282;5.960;2023-03-05T03:38:25;3.10;84.00
77613;DHT22;66777;52.282;5.960;2023-03-05T03:40:51;3.10;83.90
77613;DHT22;66777;52.282;5.960;2023-03-05T03:43:17;3.20;83.70
77613;DHT22;66777;52.282;5.960;2023-03-05T03:45:43;3.20;83.70
77613;DHT22;66777;52.282;5.960;2023-03-05T03:48:10;3.20;83.60
77613;DHT22;66777;52.282;5.960;2023-03-05T03:50:40;3.20;83.70
77613;DHT22;66777;52.282;5.960;2023-03-05T03:53:07;3.20;83.70
77613;DHT22;66777;52.282;5.960;2023-03-05T03:55:34;3.20;83.50
77613;DHT22;66777;52.282;5.960;2023-03-05T03:58:00;3.20;83.60
77613;DHT22;66777;52.282;5.960;2023-03-05T04:00:25;3.20;83.60
77613;DHT22;66777;52.282;5.960;2023-03-05T04:02:51;3.20;83.60
77613;DHT22;66777;52.282;5.960;2023-03-05T04:05:17;3.30;83.30
77613;DHT22;66777;52.282;5.960;2023-03-05T04:07:43;3.30;83.60
77613;DHT22;66777;52.282;5.960;2023-03-05T04:10:10;3.30;83.70
77613;DHT22;66777;52.282;5.960;2023-03-05T04:12:36;3.30;83.90
77613;DHT22;66777;52.282;5.960;2023-03-05T04:15:02;3.10;83.80
77613;DHT22;66777;52.282;5.960;2023-03-05T04:17:32;3.10;83.90
77613;DHT22;66777;52.282;5.960;2023-03-05T04:19:57;3.10;83.90
77613;DHT22;66777;52.282;5.960;2023-03-05T04:22:23;3.10;84.10
77613;DHT22;66777;52.282;5.960;2023-03-05T04:24:52;3.10;84.00
77613;DHT22;66777;52.282;5.960;2023-03-05T04:27:18;3.10;84.10
77613;DHT22;66777;52.282;5.960;2023-03-05T04:29:44;3.10;84.10
77613;DHT22;66777;52.282;5.960;2023-03-05T04:32:11;3.10;83.90
77613;DHT22;66777;52.282;5.960;2023-03-05T04:34:37;3.10;83.80
77613;DHT22;66777;52.282;5.960;2023-03-05T04:37:03;3.10;83.80
77613;DHT22;66777;52.282;5.960;2023-03-05T04:39:29;3.00;83.90
77613;DHT22;66777;52.282;5.960;2023-03-05T04:41:55;3.00;84.10
77613;DHT22;66777;52.282;5.960;2023-03-05T04:44:21;3.10;84.20
77613;DHT22;66777;52.282;5.960;2023-03-05T04:46:48;3.10;84.10
77613;DHT22;66777;52.282;5.960;2023-03-05T04:49:14;3.10;84.00
77613;DHT22;66777;52.282;5.960;2023-03-05T04:51:40;3.10;83.90
77613;DHT22;66777;52.282;5.960;2023-03-05T04:54:06;3.10;83.80
77613;DHT22;66777;52.282;5.960;2023-03-05T04:56:32;3.10;83.80
77613;DHT22;66777;52.282;5.960;2023-03-05T04:58:59;3.20;83.80
77613;DHT22;66777;52.282;5.960;2023-03-05T05:01:25;3.20;83.90
77613;DHT22;66777;52.282;5.960;2023-03-05T05:03:52;3.20;83.80
77613;DHT22;66777;52.282;5.960;2023-03-05T05:06:18;3.20;83.70
77613;DHT22;66777;52.282;5.960;2023-03-05T05:08:44;3.20;83.90
77613;DHT22;66777;52.282;5.960;2023-03-05T05:11:12;3.20;83.90
77613;DHT22;66777;52.282;5.960;2023-03-05T05:13:39;3.30;83.50
77613;DHT22;66777;52.282;5.960;2023-03-05T05:16:07;3.30;83.70
77613;DHT22;66777;52.282;5.960;2023-03-05T05:18:34;3.30;83.40
77613;DHT22;66777;52.282;5.960;2023-03-05T05:21:00;3.20;83.20
77613;DHT22;66777;52.282;5.960;2023-03-05T05:23:26;3.10;83.40
77613;DHT22;66777;52.282;5.960;2023-03-05T05:26:00;3.00;83.40
77613;DHT22;66777;52.282;5.960;2023-03-05T05:28:26;2.80;83.70
77613;DHT22;66777;52.282;5.960;2023-03-05T05:30:52;2.70;84.00
77613;DHT22;66777;52.282;5.960;2023-03-05T05:33:19;2.50;84.40
77613;DHT22;66777;52.282;5.960;2023-03-05T05:35:45;2.40;84.70
77613;DHT22;66777;52.282;5.960;2023-03-05T05:38:12;2.40;85.00
77613;DHT22;66777;52.282;5.960;2023-03-05T05:40:39;2.40;85.20
77613;DHT22;66777;52.282;5.960;2023-03-05T05:43:05;2.50;85.40
77613;DHT22;66777;52.282;5.960;2023-03-05T05:45:32;2.50;85.30
77613;DHT22;66777;52.282;5.960;2023-03-05T05:47:57;2.50;85.20
77613;DHT22;66777;52.282;5.960;2023-03-05T05:50:24;2.50;85.20
77613;DHT22;66777;52.282;5.960;2023-03-05T05:52:54;2.50;85.10
77613;DHT22;66777;52.282;5.960;2023-03-05T05:55:20;2.50;85.20
77613;DHT22;66777;52.282;5.960;2023-03-05T05:57:46;2.60;85.00
77613;DHT22;66777;52.282;5.960;2023-03-05T06:00:13;2.70;85.00
77613;DHT22;66777;52.282;5.960;2023-03-05T06:02:40;2.70;84.80
77613;DHT22;66777;52.282;5.960;2023-03-05T06:05:09;2.70;84.80
77613;DHT22;66777;52.282;5.960;2023-03-05T06:07:36;2.80;84.70
77613;DHT22;66777;52.282;5.960;2023-03-05T06:10:02;2.80;84.70
77613;DHT22;66777;52.282;5.960;2023-03-05T06:12:29;2.80;84.80
77613;DHT22;66777;52.282;5.960;2023-03-05T06:14:56;2.90;84.70
77613;DHT22;66777;52.282;5.960;2023-03-05T06:17:22;2.90;84.50
77613;DHT22;66777;52.282;5.960;2023-03-05T06:19:47;2.90;84.40
77613;DHT22;66777;52.282;5.960;2023-03-05T06:22:13;2.90;84.50
77613;DHT22;66777;52.282;5.960;2023-03-05T06:24:39;2.90;84.30
77613;DHT22;66777;52.282;5.960;2023-03-05T06:27:06;2.90;84.70
77613;DHT22;66777;52.282;5.960;2023-03-05T06:29:32;3.00;84.60
77613;DHT22;66777;52.282;5.960;2023-03-05T06:31:58;3.00;84.70
77613;DHT22;66777;52.282;5.960;2023-03-05T06:34:24;3.10;84.60
77613;DHT22;66777;52.282;5.960;2023-03-05T06:36:50;3.10;84.20
77613;DHT22;66777;52.282;5.960;2023-03-05T06:39:16;3.10;84.30
77613;DHT22;66777;52.282;5.960;2023-03-05T06:41:41;3.20;84.00
77613;DHT22;66777;52.282;5.960;2023-03-05T06:44:09;3.20;83.80
77613;DHT22;66777;52.282;5.960;2023-03-05T06:46:36;3.30;83.90
77613;DHT22;66777;52.282;5.960;2023-03-05T06:49:04;3.30;83.60
77613;DHT22;66777;52.282;5.960;2023-03-05T06:51:32;3.40;83.60
77613;DHT22;66777;52.282;5.960;2023-03-05T06:54:01;3.40;83.40
77613;DHT22;66777;52.282;5.960;2023-03-05T06:56:29;3.50;83.40
77613;DHT22;66777;52.282;5.960;2023-03-05T06:58:57;3.50;83.20
77613;DHT22;66777;52.282;5.960;2023-03-05T07:01:23;3.50;83.00
77613;DHT22;66777;52.282;5.960;2023-03-05T07:03:51;3.60;82.80
77613;DHT22;66777;52.282;5.960;2023-03-05T07:06:18;3.60;83.00
77613;DHT22;66777;52.282;5.960;2023-03-05T07:08:46;3.80;82.80
77613;DHT22;66777;52.282;5.960;2023-03-05T07:11:13;3.80;82.50
77613;DHT22;66777;52.282;5.960;2023-03-05T07:13:39;3.90;82.40
77613;DHT22;66777;52.282;5.960;2023-03-05T07:16:07;3.90;82.30
77613;DHT22;66777;52.282;5.960;2023-03-05T07:18:33;3.90;82.20
77613;DHT22;66777;52.282;5.960;2023-03-05T07:21:06;3.90;82.20
77613;DHT22;66777;52.282;5.960;2023-03-05T07:23:34;3.90;82.30
77613;DHT22;66777;52.282;5.960;2023-03-05T07:26:04;4.00;82.30
77613;DHT22;66777;52.282;5.960;2023-03-05T07:28:32;4.00;82.00
77613;DHT22;66777;52.282;5.960;2023-03-05T07:31:05;4.10;81.90
77613;DHT22;66777;52.282;5.960;2023-03-05T07:33:32;4.10;82.00
77613;DHT22;66777;52.282;5.960;2023-03-05T07:36:00;4.00;84.00
77613;DHT22;66777;52.282;5.960;2023-03-05T07:38:27;3.90;85.60
77613;DHT22;66777;52.282;5.960;2023-03-05T07:40:52;3.90;85.50
77613;DHT22;66777;52.282;5.960;2023-03-05T07:43:18;4.00;86.20
77613;DHT22;66777;52.282;5.960;2023-03-05T07:45:44;3.90;85.30
77613;DHT22;66777;52.282;5.960;2023-03-05T07:48:17;4.10;86.00
77613;DHT22;66777;52.282;5.960;2023-03-05T07:50:46;4.10;85.80
77613;DHT22;66777;52.282;5.960;2023-03-05T07:53:13;4.20;85.80
77613;DHT22;66777;52.282;5.960;2023-03-05T07:55:43;4.20;85.60
77613;DHT22;66777;52.282;5.960;2023-03-05T07:58:09;4.40;85.70
77613;DHT22;66777;52.282;5.960;2023-03-05T08:00:36;4.40;85.40
77613;DHT22;66777;52.282;5.960;2023-03-05T08:03:02;4.50;85.00
77613;DHT22;66777;52.282;5.960;2023-03-05T08:05:28;4.50;84.60
77613;DHT22;66777;52.282;5.960;2023-03-05T08:07:54;4.50;84.60
77613;DHT22;66777;52.282;5.960;2023-03-05T08:10:20;4.70;84.40
77613;DHT22;66777;52.282;5.960;2023-03-05T08:12:46;4.70;83.90
77613;DHT22;66777;52.282;5.960;2023-03-05T08:15:12;4.90;83.50
77613;DHT22;66777;52.282;5.960;2023-03-05T08:17:38;5.00;83.60
77613;DHT22;66777;52.282;5.960;2023-03-05T08:20:04;4.90;82.60
77613;DHT22;66777;52.282;5.960;2023-03-05T08:22:35;5.00;83.50
77613;DHT22;66777;52.282;5.960;2023-03-05T08:25:02;5.10;82.90
77613;DHT22;66777;52.282;5.960;2023-03-05T08:27:28;5.10;82.80
77613;DHT22;66777;52.282;5.960;2023-03-05T08:29:54;5.30;82.90
77613;DHT22;66777;52.282;5.960;2023-03-05T08:32:22;5.50;82.40
77613;DHT22;66777;52.282;5.960;2023-03-05T08:34:49;5.50;82.30
77613;DHT22;66777;52.282;5.960;2023-03-05T08:37:15;5.70;82.20
77613;DHT22;66777;52.282;5.960;2023-03-05T08:39:40;5.70;81.20
77613;DHT22;66777;52.282;5.960;2023-03-05T08:42:07;5.90;81.40
77613;DHT22;66777;52.282;5.960;2023-03-05T08:44:33;6.20;81.30
77613;DHT22;66777;52.282;5.960;2023-03-05T08:46:59;6.40;80.80
77613;DHT22;66777;52.282;5.960;2023-03-05T08:49:24;6.50;80.70
77613;DHT22;66777;52.282;5.960;2023-03-05T08:51:50;6.60;80.10
77613;DHT22;66777;52.282;5.960;2023-03-05T08:54:16;6.60;79.80
77613;DHT22;66777;52.282;5.960;2023-03-05T08:56:44;6.60;79.70
77613;DHT22;66777;52.282;5.960;2023-03-05T08:59:10;6.70;79.80
77613;DHT22;66777;52.282;5.960;2023-03-05T09:01:36;6.90;78.70
77613;DHT22;66777;52.282;5.960;2023-03-05T09:04:02;7.00;78.40
77613;DHT22;66777;52.282;5.960;2023-03-05T09:06:28;7.00;78.30
77613;DHT22;66777;52.282;5.960;2023-03-05T09:08:54;7.00;78.80
77613;DHT22;66777;52.282;5.960;2023-03-05T09:11:20;6.90;77.80
77613;DHT22;66777;52.282;5.960;2023-03-05T09:13:46;6.70;79.00
77613;DHT22;66777;52.282;5.960;2023-03-05T09:16:15;6.60;78.30
77613;DHT22;66777;52.282;5.960;2023-03-05T09:18:43;6.40;78.80
77613;DHT22;66777;52.282;5.960;2023-03-05T09:21:14;6.30;78.60
77613;DHT22;66777;52.282;5.960;2023-03-05T09:23:41;6.40;78.70
77613;DHT22;66777;52.282;5.960;2023-03-05T09:26:11;6.50;77.00
77613;DHT22;66777;52.282;5.960;2023-03-05T09:28:37;6.60;77.60
77613;DHT22;66777;52.282;5.960;2023-03-05T09:31:05;6.60;75.70
77613;DHT22;66777;52.282;5.960;2023-03-05T09:33:33;7.00;76.90
77613;DHT22;66777;52.282;5.960;2023-03-05T09:35:59;7.80;75.90
77613;DHT22;66777;52.282;5.960;2023-03-05T09:38:26;8.50;74.20
77613;DHT22;66777;52.282;5.960;2023-03-05T09:41:01;8.60;72.80
77613;DHT22;66777;52.282;5.960;2023-03-05T09:43:48;8.50;73.00
77613;DHT22;66777;52.282;5.960;2023-03-05T09:48:52;8.10;71.40
77613;DHT22;66777;52.282;5.960;2023-03-05T09:51:24;7.80;71.60
77613;DHT22;66777;52.282;5.960;2023-03-05T09:54:02;7.60;72.70
77613;DHT22;66777;52.282;5.960;2023-03-05T09:56:53;7.50;73.10
77613;DHT22;66777;52.282;5.960;2023-03-05T10:02:14;8.00;71.70
77613;DHT22;66777;52.282;5.960;2023-03-05T10:07:29;9.20;69.60
77613;DHT22;66777;52.282;5.960;2023-03-05T10:10:08;9.50;66.70
77613;DHT22;66777;52.282;5.960;2023-03-05T10:12:47;10.20;67.10
77613;DHT22;66777;52.282;5.960;2023-03-05T10:15:33;10.60;65.20
77613;DHT22;66777;52.282;5.960;2023-03-05T10:21:16;10.10;62.10
77613;DHT22;66777;52.282;5.960;2023-03-05T10:26:57;10.30;61.60
77613;DHT22;66777;52.282;5.960;2023-03-05T10:29:39;10.30;61.40
77613;DHT22;66777;52.282;5.960;2023-03-05T10:32:25;10.20;63.30
77613;DHT22;66777;52.282;5.960;2023-03-05T10:38:13;8.60;66.50
77613;DHT22;66777;52.282;5.960;2023-03-05T10:40:53;7.50;71.40
77613;DHT22;66777;52.282;5.960;2023-03-05T10:46:14;6.10;77.40
77613;DHT22;66777;52.282;5.960;2023-03-05T10:48:58;5.70;81.40
77613;DHT22;66777;52.282;5.960;2023-03-05T10:53:58;5.40;85.00
77613;DHT22;66777;52.282;5.960;2023-03-05T10:56:28;5.60;84.50
77613;DHT22;66777;52.282;5.960;2023-03-05T10:58:54;5.70;85.20
77613;DHT22;66777;52.282;5.960;2023-03-05T11:01:27;6.00;84.40
77613;DHT22;66777;52.282;5.960;2023-03-05T11:04:05;6.40;84.20
77613;DHT22;66777;52.282;5.960;2023-03-05T11:06:45;7.00;84.30
77613;DHT22;66777;52.282;5.960;2023-03-05T11:09:16;8.00;82.70
77613;DHT22;66777;52.282;5.960;2023-03-05T11:12:13;9.40;81.00
77613;DHT22;66777;52.282;5.960;2023-03-05T11:14:44;10.30;77.70
77613;DHT22;66777;52.282;5.960;2023-03-05T11:17:28;10.50;76.00
77613;DHT22;66777;52.282;5.960;2023-03-05T11:19:56;10.50;74.90
77613;DHT22;66777;52.282;5.960;2023-03-05T11:22:24;10.70;75.50
77613;DHT22;66777;52.282;5.960;2023-03-05T11:25:15;11.00;72.30
77613;DHT22;66777;52.282;5.960;2023-03-05T11:28:16;10.90;71.90
77613;DHT22;66777;52.282;5.960;2023-03-05T11:30:42;11.20;71.90
77613;DHT22;66777;52.282;5.960;2023-03-05T11:33:20;11.70;72.20
77613;DHT22;66777;52.282;5.960;2023-03-05T11:35:47;12.30;67.50
77613;DHT22;66777;52.282;5.960;2023-03-05T11:38:24;12.10;64.50
77613;DHT22;66777;52.282;5.960;2023-03-05T11:40:53;12.20;67.40
77613;DHT22;66777;52.282;5.960;2023-03-05T11:43:21;13.00;63.00
77613;DHT22;66777;52.282;5.960;2023-03-05T11:45:53;13.60;63.00
77613;DHT22;66777;52.282;5.960;2023-03-05T11:48:43;13.60;64.40
77613;DHT22;66777;52.282;5.960;2023-03-05T11:51:21;12.00;61.60
77613;DHT22;66777;52.282;5.960;2023-03-05T11:53:58;10.70;64.70
77613;DHT22;66777;52.282;5.960;2023-03-05T11:56:35;9.60;67.20
77613;DHT22;66777;52.282;5.960;2023-03-05T11:59:06;8.70;69.20
77613;DHT22;66777;52.282;5.960;2023-03-05T12:01:47;8.10;72.40
77613;DHT22;66777;52.282;5.960;2023-03-05T12:04:16;7.90;73.10
77613;DHT22;66777;52.282;5.960;2023-03-05T12:06:53;7.60;74.80
77613;DHT22;66777;52.282;5.960;2023-03-05T12:09:39;7.40;75.80
77613;DHT22;66777;52.282;5.960;2023-03-05T12:12:11;7.00;75.90
77613;DHT22;66777;52.282;5.960;2023-03-05T12:14:45;6.70;77.30
77613;DHT22;66777;52.282;5.960;2023-03-05T12:22:22;6.60;78.80
77613;DHT22;66777;52.282;5.960;2023-03-05T12:24:49;6.60;80.20
77613;DHT22;66777;52.282;5.960;2023-03-05T12:27:31;6.60;78.90
77613;DHT22;66777;52.282;5.960;2023-03-05T12:29:58;6.60;79.70
77613;DHT22;66777;52.282;5.960;2023-03-05T12:35:22;6.80;80.30
77613;DHT22;66777;52.282;5.960;2023-03-05T12:42:54;7.40;77.60
77613;DHT22;66777;52.282;5.960;2023-03-05T12:52:53;11.10;68.40
77613;DHT22;66777;52.282;5.960;2023-03-05T13:01:25;14.60;61.30
77613;DHT22;66777;52.282;5.960;2023-03-05T13:06:27;15.00;59.90
77613;DHT22;66777;52.282;5.960;2023-03-05T13:08:59;15.90;59.70
77613;DHT22;66777;52.282;5.960;2023-03-05T13:11:27;16.40;55.60
77613;DHT22;66777;52.282;5.960;2023-03-05T13:13:55;15.50;57.50
77613;DHT22;66777;52.282;5.960;2023-03-05T13:16:44;15.50;58.60
77613;DHT22;66777;52.282;5.960;2023-03-05T13:19:16;16.00;52.20
77613;DHT22;66777;52.282;5.960;2023-03-05T13:21:42;16.20;55.00
77613;DHT22;66777;52.282;5.960;2023-03-05T13:24:18;16.90;55.80
77613;DHT22;66777;52.282;5.960;2023-03-05T13:26:44;17.70;52.80
77613;DHT22;66777;52.282;5.960;2023-03-05T13:31:53;19.00;48.30
77613;DHT22;66777;52.282;5.960;2023-03-05T13:39:30;17.80;48.70
77613;DHT22;66777;52.282;5.960;2023-03-05T13:42:03;17.40;49.00
77613;DHT22;66777;52.282;5.960;2023-03-05T13:44:31;17.60;49.60
77613;DHT22;66777;52.282;5.960;2023-03-05T13:47:16;18.00;49.40
77613;DHT22;66777;52.282;5.960;2023-03-05T13:49:42;17.40;49.50
77613;DHT22;66777;52.282;5.960;2023-03-05T13:52:08;16.80;51.60
77613;DHT22;66777;52.282;5.960;2023-03-05T13:54:34;16.20;52.40
77613;DHT22;66777;52.282;5.960;2023-03-05T13:57:05;15.10;52.10
77613;DHT22;66777;52.282;5.960;2023-03-05T13:59:34;14.40;52.80
77613;DHT22;66777;52.282;5.960;2023-03-05T14:02:15;14.10;50.70
77613;DHT22;66777;52.282;5.960;2023-03-05T14:04:43;14.40;53.00
77613;DHT22;66777;52.282;5.960;2023-03-05T14:07:30;15.10;53.30
77613;DHT22;66777;52.282;5.960;2023-03-05T14:09:56;15.60;51.70
77613;DHT22;66777;52.282;5.960;2023-03-05T14:12:51;15.50;52.30
77613;DHT22;66777;52.282;5.960;2023-03-05T14:15:24;14.70;50.00
77613;DHT22;66777;52.282;5.960;2023-03-05T14:17:51;14.20;53.30
77613;DHT22;66777;52.282;5.960;2023-03-05T14:20:22;13.70;53.70
77613;DHT22;66777;52.282;5.960;2023-03-05T14:22:54;12.90;53.60
77613;DHT22;66777;52.282;5.960;2023-03-05T14:25:28;12.20;54.80
77613;DHT22;66777;52.282;5.960;2023-03-05T14:30:47;11.50;54.70
77613;DHT22;66777;52.282;5.960;2023-03-05T14:33:27;10.90;56.00
77613;DHT22;66777;52.282;5.960;2023-03-05T14:35:54;10.60;55.50
77613;DHT22;66777;52.282;5.960;2023-03-05T14:38:30;10.20;58.20
77613;DHT22;66777;52.282;5.960;2023-03-05T14:43:57;9.40;57.30
77613;DHT22;66777;52.282;5.960;2023-03-05T14:46:23;9.20;59.00
77613;DHT22;66777;52.282;5.960;2023-03-05T14:48:49;9.10;60.10
77613;DHT22;66777;52.282;5.960;2023-03-05T14:51:15;9.00;60.80
77613;DHT22;66777;52.282;5.960;2023-03-05T14:53:44;9.00;60.70
77613;DHT22;66777;52.282;5.960;2023-03-05T14:56:22;8.90;60.40
77613;DHT22;66777;52.282;5.960;2023-03-05T14:58:48;8.90;59.70
77613;DHT22;66777;52.282;5.960;2023-03-05T15:01:14;8.90;60.30
77613;DHT22;66777;52.282;5.960;2023-03-05T15:03:40;9.40;59.70
77613;DHT22;66777;52.282;5.960;2023-03-05T15:06:15;9.40;59.00
77613;DHT22;66777;52.282;5.960;2023-03-05T15:08:42;9.40;57.70
77613;DHT22;66777;52.282;5.960;2023-03-05T15:11:08;9.50;58.40
77613;DHT22;66777;52.282;5.960;2023-03-05T15:13:34;9.50;56.50
77613;DHT22;66777;52.282;5.960;2023-03-05T15:16:01;9.50;58.00
77613;DHT22;66777;52.282;5.960;2023-03-05T15:18:27;10.00;58.00
77613;DHT22;66777;52.282;5.960;2023-03-05T15:20:54;10.10;56.30
77613;DHT22;66777;52.282;5.960;2023-03-05T15:23:22;9.80;56.50
77613;DHT22;66777;52.282;5.960;2023-03-05T15:25:48;9.70;58.40
77613;DHT22;66777;52.282;5.960;2023-03-05T15:28:15;9.70;57.10
77613;DHT22;66777;52.282;5.960;2023-03-05T15:30:43;9.60;58.00
77613;DHT22;66777;52.282;5.960;2023-03-05T15:33:12;9.60;57.30
77613;DHT22;66777;52.282;5.960;2023-03-05T15:35:38;10.10;56.60
77613;DHT22;66777;52.282;5.960;2023-03-05T15:38:05;10.30;56.60
77613;DHT22;66777;52.282;5.960;2023-03-05T15:40:31;10.30;57.00
77613;DHT22;66777;52.282;5.960;2023-03-05T15:42:58;9.80;56.40
77613;DHT22;66777;52.282;5.960;2023-03-05T15:45:25;9.20;57.30
77613;DHT22;66777;52.282;5.960;2023-03-05T15:47:51;9.00;58.20
77613;DHT22;66777;52.282;5.960;2023-03-05T15:50:18;8.80;58.40
77613;DHT22;66777;52.282;5.960;2023-03-05T15:52:44;8.80;56.20
77613;DHT22;66777;52.282;5.960;2023-03-05T15:55:11;8.80;58.20
77613;DHT22;66777;52.282;5.960;2023-03-05T15:57:41;8.80;58.50
77613;DHT22;66777;52.282;5.960;2023-03-05T16:00:09;8.80;57.50
77613;DHT22;66777;52.282;5.960;2023-03-05T16:02:35;8.60;57.90
77613;DHT22;66777;52.282;5.960;2023-03-05T16:05:03;8.50;57.80
77613;DHT22;66777;52.282;5.960;2023-03-05T16:07:30;8.30;57.80
77613;DHT22;66777;52.282;5.960;2023-03-05T16:09:57;8.20;58.10
77613;DHT22;66777;52.282;5.960;2023-03-05T16:12:25;8.00;58.40
77613;DHT22;66777;52.282;5.960;2023-03-05T16:14:53;7.90;59.10
77613;DHT22;66777;52.282;5.960;2023-03-05T16:17:21;7.50;59.00
77613;DHT22;66777;52.282;5.960;2023-03-05T16:19:51;7.30;59.30
77613;DHT22;66777;52.282;5.960;2023-03-05T16:22:18;7.10;59.40
77613;DHT22;66777;52.282;5.960;2023-03-05T16:24:44;7.00;60.00
77613;DHT22;66777;52.282;5.960;2023-03-05T16:27:11;6.90;60.80
77613;DHT22;66777;52.282;5.960;2023-03-05T16:29:37;6.70;60.60
77613;DHT22;66777;52.282;5.960;2023-03-05T16:32:04;6.70;61.40
77613;DHT22;66777;52.282;5.960;2023-03-05T16:34:30;6.60;62.10
77613;DHT22;66777;52.282;5.960;2023-03-05T16:36:59;6.50;62.20
77613;DHT22;66777;52.282;5.960;2023-03-05T16:39:28;6.40;62.70
77613;DHT22;66777;52.282;5.960;2023-03-05T16:41:54;6.20;63.50
77613;DHT22;66777;52.282;5.960;2023-03-05T16:44:22;6.10;63.30
77613;DHT22;66777;52.282;5.960;2023-03-05T16:46:48;6.00;64.40
77613;DHT22;66777;52.282;5.960;2023-03-05T16:49:18;5.90;64.80
77613;DHT22;66777;52.282;5.960;2023-03-05T16:51:45;5.80;65.00
77613;DHT22;66777;52.282;5.960;2023-03-05T16:54:10;5.80;64.10
77613;DHT22;66777;52.282;5.960;2023-03-05T16:56:38;5.80;64.50
77613;DHT22;66777;52.282;5.960;2023-03-05T16:59:04;5.90;64.50
77613;DHT22;66777;52.282;5.960;2023-03-05T17:01:30;5.90;64.70
77613;DHT22;66777;52.282;5.960;2023-03-05T17:03:57;5.90;64.40